createdAt,value
2018-09-12T00:00:59.252Z,15.77
2018-09-12T00:01:59.243Z,15.78
2018-09-12T00:02:59.243Z,15.89
2018-09-12T00:03:58.978Z,15.93
2018-09-12T00:04:58.970Z,16.04
2018-09-12T00:05:58.968Z,16.08
2018-09-12T00:06:59.222Z,16.06
2018-09-12T00:07:59.211Z,16.08
2018-09-12T00:08:59.203Z,16.08
2018-09-12T00:09:58.949Z,16.07
2018-09-12T00:10:59.210Z,15.99
2018-09-12T00:11:58.931Z,15.99
2018-09-12T00:12:58.930Z,15.98
2018-09-12T00:13:59.184Z,15.92
2018-09-12T00:14:59.173Z,15.92
2018-09-12T00:15:58.907Z,15.99
2018-09-12T00:16:58.904Z,16.07
2018-09-12T00:17:58.896Z,16.22
2018-09-12T00:18:59.147Z,16.25
2018-09-12T00:19:59.145Z,16.18
2018-09-12T00:20:59.162Z,16.13
2018-09-12T00:21:59.135Z,16.21
2018-09-12T00:22:58.874Z,16.14
2018-09-12T00:23:59.119Z,16.13
2018-09-12T00:24:59.121Z,16.21
2018-09-12T00:25:59.107Z,16.18
2018-09-12T00:26:59.108Z,16.25
2018-09-12T00:27:59.101Z,16.25
2018-09-12T00:28:59.097Z,16.18
2018-09-12T00:29:59.103Z,16.17
2018-09-12T00:30:59.078Z,16.07
2018-09-12T00:31:59.086Z,16.08
2018-09-12T00:32:58.814Z,16.07
2018-09-12T00:33:59.068Z,16
2018-09-12T00:34:59.069Z,16.07
2018-09-12T00:35:59.063Z,16.04
2018-09-12T00:36:58.798Z,16.02
2018-09-12T00:37:59.048Z,15.93
2018-09-12T00:38:59.042Z,15.98
2018-09-12T00:39:59.035Z,15.96
2018-09-12T00:40:58.775Z,15.99
2018-09-12T00:41:58.767Z,15.89
2018-09-12T00:42:59.018Z,15.95
2018-09-12T00:43:59.012Z,15.93
2018-09-12T00:44:59.005Z,15.86
2018-09-12T00:45:59.006Z,15.88
2018-09-12T00:46:58.738Z,15.89
2018-09-12T00:47:58.737Z,15.88
2018-09-12T00:48:58.990Z,15.83
2018-09-12T00:49:58.722Z,15.78
2018-09-12T00:50:58.723Z,15.93
2018-09-12T00:51:58.712Z,15.88
2018-09-12T00:52:58.965Z,15.81
2018-09-12T00:53:58.708Z,15.95
2018-09-12T00:54:58.957Z,15.93
2018-09-12T00:55:58.949Z,15.96
2018-09-12T00:56:58.681Z,15.88
2018-09-12T00:57:58.938Z,15.89
2018-09-12T00:58:58.672Z,15.84
2018-09-12T00:59:58.669Z,15.99
2018-09-12T01:00:58.666Z,16.04
2018-09-12T01:01:58.916Z,15.99
2018-09-12T01:02:58.923Z,15.93
2018-09-12T01:03:58.643Z,15.81
2018-09-12T01:04:58.904Z,15.74
2018-09-12T01:05:58.631Z,15.68
2018-09-12T01:06:58.885Z,15.71
2018-09-12T01:07:58.880Z,15.58
2018-09-12T01:08:58.880Z,15.52
2018-09-12T01:09:58.867Z,15.47
2018-09-12T01:10:58.861Z,15.45
2018-09-12T01:11:58.858Z,15.49
2018-09-12T01:12:58.599Z,15.56
2018-09-12T01:13:58.851Z,15.63
2018-09-12T01:14:58.891Z,15.7
2018-09-12T01:15:58.580Z,15.63
2018-09-12T01:16:58.571Z,15.63
2018-09-12T01:17:58.823Z,15.77
2018-09-12T01:18:58.829Z,15.74
2018-09-12T01:19:58.813Z,15.88
2018-09-12T01:20:58.810Z,15.86
2018-09-12T01:21:58.545Z,15.81
2018-09-12T01:22:58.797Z,15.99
2018-09-12T01:23:58.799Z,15.92
2018-09-12T01:24:58.786Z,16.02
2018-09-12T01:25:58.522Z,15.93
2018-09-12T01:26:58.777Z,16.06
2018-09-12T01:27:58.771Z,16.18
2018-09-12T01:28:58.769Z,16.1
2018-09-12T01:29:58.758Z,16.29
2018-09-12T01:30:58.751Z,16.27
2018-09-12T01:31:58.741Z,16.26
2018-09-12T01:32:58.743Z,16.07
2018-09-12T01:33:58.732Z,16.08
2018-09-12T01:34:58.740Z,15.93
2018-09-12T01:35:58.479Z,15.88
2018-09-12T01:36:58.460Z,15.88
2018-09-12T01:37:58.457Z,15.74
2018-09-12T01:38:58.451Z,15.73
2018-09-12T01:39:58.446Z,15.68
2018-09-12T01:40:58.439Z,15.52
2018-09-12T01:41:58.692Z,15.52
2018-09-12T01:42:58.683Z,15.4
2018-09-12T01:43:58.682Z,15.49
2018-09-12T01:44:58.676Z,15.43
2018-09-12T01:45:58.418Z,15.38
2018-09-12T01:46:58.406Z,15.34
2018-09-12T01:47:58.666Z,15.45
2018-09-12T01:48:58.653Z,15.45
2018-09-12T01:49:58.648Z,15.41
2018-09-12T01:50:58.646Z,15.41
2018-09-12T01:51:58.637Z,15.41
2018-09-12T01:52:58.626Z,15.41
2018-09-12T01:53:58.365Z,15.47
2018-09-12T01:54:58.622Z,15.47
2018-09-12T01:55:58.615Z,15.44
2018-09-12T01:56:58.612Z,15.41
2018-09-12T01:57:58.344Z,15.41
2018-09-12T01:58:58.337Z,15.34
2018-09-12T01:59:58.593Z,15.3
2018-09-12T02:00:58.588Z,15.37
2018-09-12T02:01:58.576Z,15.3
2018-09-12T02:02:58.569Z,15.38
2018-09-12T02:03:58.569Z,15.43
2018-09-12T02:04:58.309Z,15.44
2018-09-12T02:05:58.558Z,15.51
2018-09-12T02:06:58.558Z,15.4
2018-09-12T02:07:58.541Z,15.56
2018-09-12T02:08:58.539Z,15.6
2018-09-12T02:09:58.272Z,15.55
2018-09-12T02:10:58.520Z,15.6
2018-09-12T02:11:58.526Z,15.56
2018-09-12T02:12:58.521Z,15.45
2018-09-12T02:13:58.255Z,15.55
2018-09-12T02:14:58.503Z,15.55
2018-09-12T02:15:58.501Z,15.44
2018-09-12T02:16:58.543Z,15.52
2018-09-12T02:17:58.230Z,15.44
2018-09-12T02:18:58.478Z,15.49
2018-09-12T02:19:58.473Z,15.52
2018-09-12T02:20:58.217Z,15.53
2018-09-12T02:21:58.214Z,15.53
2018-09-12T02:22:58.196Z,15.51
2018-09-12T02:23:58.452Z,15.51
2018-09-12T02:24:58.443Z,15.55
2018-09-12T02:25:58.438Z,15.52
2018-09-12T02:26:58.434Z,15.41
2018-09-12T02:27:58.168Z,15.4
2018-09-12T02:28:58.161Z,15.34
2018-09-12T02:29:58.491Z,15.27
2018-09-12T02:30:58.410Z,15.23
2018-09-12T02:31:58.407Z,15.23
2018-09-12T02:32:58.396Z,15.18
2018-09-12T02:33:58.398Z,15.15
2018-09-12T02:34:58.136Z,15.1
2018-09-12T02:35:58.380Z,15.13
2018-09-12T02:36:58.120Z,15.1
2018-09-12T02:37:58.367Z,15.07
2018-09-12T02:38:58.105Z,15.07
2018-09-12T02:39:58.359Z,15.04
2018-09-12T02:40:58.359Z,14.95
2018-09-12T02:41:58.343Z,14.94
2018-09-12T02:42:58.083Z,14.95
2018-09-12T02:43:58.080Z,14.87
2018-09-12T02:44:58.328Z,14.9
2018-09-12T02:45:58.328Z,14.94
2018-09-12T02:46:58.316Z,14.85
2018-09-12T02:47:58.314Z,14.83
2018-09-12T02:48:58.047Z,14.82
2018-09-12T02:49:58.298Z,14.75
2018-09-12T02:50:58.291Z,14.64
2018-09-12T02:51:58.034Z,14.48
2018-09-12T02:52:58.023Z,14.45
2018-09-12T02:53:58.270Z,14.48
2018-09-12T02:54:58.268Z,14.52
2018-09-12T02:55:58.002Z,14.48
2018-09-12T02:56:58.254Z,14.51
2018-09-12T02:57:58.248Z,14.45
2018-09-12T02:58:58.251Z,14.31
2018-09-12T02:59:58.238Z,14.34
2018-09-12T03:00:58.224Z,14.27
2018-09-12T03:01:58.238Z,14.2
2018-09-12T03:02:57.961Z,14.15
2018-09-12T03:03:58.215Z,14.06
2018-09-12T03:04:58.204Z,14.12
2018-09-12T03:05:58.249Z,14.09
2018-09-12T03:06:57.940Z,14.08
2018-09-12T03:07:58.614Z,13.99
2018-09-12T03:08:57.973Z,14.02
2018-09-12T03:09:58.199Z,13.93
2018-09-12T03:10:57.923Z,13.88
2018-09-12T03:11:58.165Z,13.83
2018-09-12T03:12:58.150Z,13.81
2018-09-12T03:13:58.147Z,13.84
2018-09-12T03:14:58.146Z,13.7
2018-09-12T03:15:58.131Z,13.65
2018-09-12T03:16:58.130Z,13.6
2018-09-12T03:17:58.126Z,13.57
2018-09-12T03:18:58.187Z,13.72
2018-09-12T03:19:57.848Z,13.53
2018-09-12T03:20:58.704Z,13.57
2018-09-12T03:21:57.859Z,13.58
2018-09-12T03:22:58.090Z,13.53
2018-09-12T03:23:57.830Z,13.5
2018-09-12T03:24:58.073Z,13.48
2018-09-12T03:25:58.081Z,13.54
2018-09-12T03:26:58.056Z,13.44
2018-09-12T03:27:58.055Z,13.47
2018-09-12T03:28:58.050Z,13.42
2018-09-12T03:29:57.781Z,13.44
2018-09-12T03:30:58.041Z,13.39
2018-09-12T03:31:57.771Z,13.45
2018-09-12T03:32:58.018Z,13.53
2018-09-12T03:33:58.012Z,13.5
2018-09-12T03:34:58.020Z,13.42
2018-09-12T03:35:58.002Z,13.44
2018-09-12T03:36:57.732Z,13.35
2018-09-12T03:37:57.733Z,13.28
2018-09-12T03:38:57.984Z,13.32
2018-09-12T03:39:57.970Z,13.36
2018-09-12T03:40:57.958Z,13.28
2018-09-12T03:41:57.953Z,13.39
2018-09-12T03:42:57.960Z,13.29
2018-09-12T03:43:57.939Z,13.28
2018-09-12T03:44:57.934Z,13.31
2018-09-12T03:45:57.930Z,13.28
2018-09-12T03:46:57.915Z,13.37
2018-09-12T03:47:57.805Z,13.37
2018-09-12T03:48:57.904Z,13.37
2018-09-12T03:49:57.905Z,13.37
2018-09-12T03:50:57.892Z,13.37
2018-09-12T03:51:57.890Z,13.28
2018-09-12T03:52:57.623Z,13.28
2018-09-12T03:53:57.870Z,13.29
2018-09-12T03:54:57.605Z,13.28
2018-09-12T03:55:57.593Z,13.31
2018-09-12T03:56:57.846Z,13.24
2018-09-12T03:57:57.842Z,13.21
2018-09-12T03:58:57.575Z,13.24
2018-09-12T03:59:57.570Z,13.28
2018-09-12T04:00:57.816Z,13.13
2018-09-12T04:01:57.810Z,13.1
2018-09-12T04:02:58.136Z,13.1
2018-09-12T04:03:57.796Z,13.1
2018-09-12T04:04:57.784Z,13.07
2018-09-12T04:05:57.787Z,13.16
2018-09-12T04:06:57.772Z,13.11
2018-09-12T04:07:57.781Z,13.16
2018-09-12T04:08:57.780Z,13.11
2018-09-12T04:09:57.752Z,13.02
2018-09-12T04:10:57.746Z,13.02
2018-09-12T04:11:57.734Z,13.06
2018-09-12T04:12:57.733Z,13.01
2018-09-12T04:13:57.466Z,13.06
2018-09-12T04:14:57.459Z,13.06
2018-09-12T04:15:57.705Z,13.03
2018-09-12T04:16:58.331Z,12.96
2018-09-12T04:17:57.446Z,12.92
2018-09-12T04:18:57.685Z,12.94
2018-09-12T04:19:57.676Z,12.99
2018-09-12T04:20:57.678Z,13.03
2018-09-12T04:21:57.409Z,12.96
2018-09-12T04:22:57.403Z,12.99
2018-09-12T04:23:57.643Z,13.03
2018-09-12T04:24:57.637Z,13.09
2018-09-12T04:25:57.643Z,13.07
2018-09-12T04:26:57.627Z,13.13
2018-09-12T04:27:57.624Z,13.06
2018-09-12T04:28:57.614Z,13.11
2018-09-12T04:29:57.602Z,13.09
2018-09-12T04:30:57.595Z,13.14
2018-09-12T04:31:57.587Z,13.21
2018-09-12T04:32:57.578Z,13.24
2018-09-12T04:33:57.569Z,13.36
2018-09-12T04:34:57.585Z,13.31
2018-09-12T04:35:57.299Z,13.37
2018-09-12T04:36:57.550Z,13.4
2018-09-12T04:37:57.545Z,13.42
2018-09-12T04:38:57.537Z,13.42
2018-09-12T04:39:57.531Z,13.42
2018-09-12T04:40:57.523Z,13.42
2018-09-12T04:41:57.512Z,13.39
2018-09-12T04:42:57.746Z,13.45
2018-09-12T04:43:57.505Z,13.4
2018-09-12T04:44:57.491Z,13.39
2018-09-12T04:45:57.225Z,13.42
2018-09-12T04:46:57.478Z,13.47
2018-09-12T04:47:57.470Z,13.5
2018-09-12T04:48:57.460Z,13.39
2018-09-12T04:49:57.457Z,13.53
2018-09-12T04:50:57.456Z,13.48
2018-09-12T04:51:57.182Z,13.5
2018-09-12T04:52:57.435Z,13.45
2018-09-12T04:53:57.167Z,13.44
2018-09-12T04:54:56.902Z,13.44
2018-09-12T04:55:56.892Z,13.45
2018-09-12T04:56:57.144Z,13.51
2018-09-12T04:57:57.393Z,13.47
2018-09-12T04:58:57.129Z,13.51
2018-09-12T04:59:57.228Z,13.47
2018-09-12T05:00:57.379Z,13.42
2018-09-12T05:01:57.379Z,13.5
2018-09-12T05:02:57.106Z,13.4
2018-09-12T05:03:57.351Z,13.39
2018-09-12T05:04:57.082Z,13.47
2018-09-12T05:05:57.078Z,13.42
2018-09-12T05:06:57.342Z,13.47
2018-09-12T05:07:57.066Z,13.45
2018-09-12T05:08:57.329Z,13.48
2018-09-12T05:09:57.307Z,13.54
2018-09-12T05:10:57.296Z,13.48
2018-09-12T05:11:57.287Z,13.48
2018-09-12T05:12:57.322Z,13.51
2018-09-12T05:13:57.273Z,13.55
2018-09-12T05:14:57.270Z,13.45
2018-09-12T05:15:57.430Z,13.47
2018-09-12T05:16:57.256Z,13.5
2018-09-12T05:17:57.247Z,13.53
2018-09-12T05:18:57.240Z,13.58
2018-09-12T05:19:57.240Z,13.5
2018-09-12T05:20:56.968Z,13.53
2018-09-12T05:21:57.230Z,13.54
2018-09-12T05:22:57.214Z,13.54
2018-09-12T05:23:57.206Z,13.6
2018-09-12T05:24:56.679Z,13.63
2018-09-12T05:25:57.190Z,13.58
2018-09-12T05:26:57.186Z,13.58
2018-09-12T05:27:57.174Z,13.62
2018-09-12T05:28:57.171Z,13.72
2018-09-12T05:29:57.157Z,13.78
2018-09-12T05:30:56.896Z,13.78
2018-09-12T05:31:56.892Z,13.87
2018-09-12T05:32:56.880Z,13.9
2018-09-12T05:33:57.130Z,13.95
2018-09-12T05:34:57.122Z,14.09
2018-09-12T05:35:57.116Z,14.06
2018-09-12T05:36:57.113Z,14.11
2018-09-12T05:37:57.113Z,14.21
2018-09-12T05:38:57.099Z,14.23
2018-09-12T05:39:57.087Z,14.31
2018-09-12T05:40:57.082Z,14.42
2018-09-12T05:41:57.083Z,14.48
2018-09-12T05:42:57.069Z,14.66
2018-09-12T05:43:57.055Z,14.71
2018-09-12T05:44:57.055Z,14.69
2018-09-12T05:45:57.047Z,14.83
2018-09-12T05:46:57.034Z,14.93
2018-09-12T05:47:57.036Z,14.95
2018-09-12T05:48:57.024Z,15.01
2018-09-12T05:49:57.025Z,15.02
2018-09-12T05:50:57.012Z,15.23
2018-09-12T05:51:57.006Z,15.31
2018-09-12T05:52:56.756Z,15.4
2018-09-12T05:53:56.997Z,15.6
2018-09-12T05:54:56.994Z,15.68
2018-09-12T05:55:56.990Z,15.81
2018-09-12T05:56:56.978Z,15.98
2018-09-12T05:57:56.709Z,16.07
2018-09-12T05:58:56.706Z,16.08
2018-09-12T05:59:56.955Z,16.14
2018-09-12T06:00:56.947Z,16.14
2018-09-12T06:01:56.945Z,16.27
2018-09-12T06:02:56.679Z,16.29
2018-09-12T06:03:56.937Z,16.29
2018-09-12T06:04:56.922Z,16.26
2018-09-12T06:05:56.920Z,16.33
2018-09-12T06:06:57.263Z,16.39
2018-09-12T06:07:56.911Z,16.42
2018-09-12T06:08:56.644Z,16.48
2018-09-12T06:09:56.645Z,16.48
2018-09-12T06:10:56.891Z,16.62
2018-09-12T06:11:56.889Z,16.66
2018-09-12T06:12:56.878Z,16.52
2018-09-12T06:13:56.739Z,16.58
2018-09-12T06:14:56.873Z,16.59
2018-09-12T06:15:56.863Z,16.63
2018-09-12T06:16:56.854Z,16.69
2018-09-12T06:17:56.594Z,16.73
2018-09-12T06:18:56.853Z,16.8
2018-09-12T06:19:56.837Z,16.88
2018-09-12T06:20:56.579Z,16.85
2018-09-12T06:21:56.577Z,16.85
2018-09-12T06:22:56.834Z,16.81
2018-09-12T06:23:56.839Z,16.81
2018-09-12T06:24:56.557Z,16.77
2018-09-12T06:25:56.811Z,16.84
2018-09-12T06:26:56.808Z,16.81
2018-09-12T06:27:56.802Z,16.81
2018-09-12T06:28:56.802Z,16.82
2018-09-12T06:29:56.794Z,16.87
2018-09-12T06:30:56.808Z,16.88
2018-09-12T06:31:56.520Z,16.84
2018-09-12T06:32:56.768Z,16.99
2018-09-12T06:33:56.770Z,16.92
2018-09-12T06:34:56.759Z,16.95
2018-09-12T06:35:56.755Z,17.02
2018-09-12T06:36:56.766Z,17.07
2018-09-12T06:37:56.607Z,17.03
2018-09-12T06:38:56.741Z,17.09
2018-09-12T06:39:56.481Z,17.13
2018-09-12T06:40:56.733Z,17.17
2018-09-12T06:41:56.467Z,17.18
2018-09-12T06:42:56.720Z,17.24
2018-09-12T06:43:56.464Z,17.24
2018-09-12T06:44:56.455Z,17.24
2018-09-12T06:45:56.449Z,17.31
2018-09-12T06:46:56.745Z,17.35
2018-09-12T06:47:56.444Z,17.36
2018-09-12T06:48:56.698Z,17.35
2018-09-12T06:49:56.432Z,17.35
2018-09-12T06:50:56.684Z,17.5
2018-09-12T06:51:56.683Z,17.54
2018-09-12T06:52:56.674Z,17.54
2018-09-12T06:53:56.417Z,17.65
2018-09-12T06:54:56.152Z,17.74
2018-09-12T06:55:56.407Z,17.8
2018-09-12T06:56:56.401Z,17.96
2018-09-12T06:57:56.397Z,18.03
2018-09-12T06:58:56.652Z,18.19
2018-09-12T06:59:56.393Z,18.54
2018-09-12T07:00:56.446Z,18.78
2018-09-12T07:01:56.380Z,18.93
2018-09-12T07:02:56.633Z,19.05
2018-09-12T07:03:56.643Z,19.12
2018-09-12T07:04:56.621Z,19.27
2018-09-12T07:05:56.618Z,19.25
2018-09-12T07:06:56.615Z,19.2
2018-09-12T07:07:56.610Z,19.28
2018-09-12T07:08:56.615Z,19.31
2018-09-12T07:09:56.346Z,19.57
2018-09-12T07:10:56.600Z,19.74
2018-09-12T07:11:56.616Z,19.86
2018-09-12T07:12:56.596Z,19.95
2018-09-12T07:13:56.592Z,19.97
2018-09-12T07:14:56.335Z,19.89
2018-09-12T07:15:56.581Z,19.79
2018-09-12T07:16:56.321Z,19.74
2018-09-12T07:17:56.577Z,19.67
2018-09-12T07:18:56.581Z,19.7
2018-09-12T07:19:56.565Z,19.65
2018-09-12T07:20:56.569Z,19.79
2018-09-12T07:21:56.302Z,19.82
2018-09-12T07:22:56.560Z,19.89
2018-09-12T07:23:56.557Z,19.87
2018-09-12T07:24:56.574Z,19.83
2018-09-12T07:25:56.552Z,19.98
2018-09-12T07:26:56.552Z,19.98
2018-09-12T07:27:56.569Z,20.01
2018-09-12T07:28:56.546Z,20.02
2018-09-12T07:29:56.025Z,20.11
2018-09-12T07:30:56.547Z,20.01
2018-09-12T07:31:56.281Z,20.04
2018-09-12T07:32:56.528Z,20.07
2018-09-12T07:33:56.273Z,20.16
2018-09-12T07:34:56.528Z,20.25
2018-09-12T07:35:56.266Z,20.19
2018-09-12T07:36:56.523Z,20.16
2018-09-12T07:37:56.522Z,20.25
2018-09-12T07:38:56.262Z,20.25
2018-09-12T07:39:56.262Z,20.35
2018-09-12T07:40:56.515Z,20.26
2018-09-12T07:41:56.253Z,20.41
2018-09-12T07:42:56.507Z,20.46
2018-09-12T07:43:56.500Z,20.57
2018-09-12T07:44:56.248Z,20.61
2018-09-12T07:45:55.993Z,20.74
2018-09-12T07:46:56.500Z,20.83
2018-09-12T07:47:56.497Z,20.9
2018-09-12T07:48:56.319Z,21.04
2018-09-12T07:49:56.495Z,21.08
2018-09-12T07:50:56.244Z,21.25
2018-09-12T07:51:55.971Z,21.27
2018-09-12T07:52:56.235Z,21.36
2018-09-12T07:53:56.227Z,21.51
2018-09-12T07:54:56.239Z,21.55
2018-09-12T07:55:56.297Z,21.76
2018-09-12T07:56:56.226Z,21.82
2018-09-12T07:57:56.224Z,21.97
2018-09-12T07:58:56.487Z,21.97
2018-09-12T07:59:56.629Z,22.05
2018-09-12T08:00:56.478Z,22.12
2018-09-12T08:01:56.472Z,22.2
2018-09-12T08:02:56.474Z,22.3
2018-09-12T08:03:56.479Z,22.38
2018-09-12T08:04:56.276Z,22.36
2018-09-12T08:05:56.470Z,22.51
2018-09-12T08:06:56.475Z,22.59
2018-09-12T08:07:56.463Z,22.63
2018-09-12T08:08:56.208Z,22.69
2018-09-12T08:09:56.467Z,22.71
2018-09-12T08:10:56.209Z,22.78
2018-09-12T08:11:56.476Z,22.92
2018-09-12T08:12:56.463Z,23
2018-09-12T08:13:56.462Z,23.03
2018-09-12T08:14:56.207Z,23.1
2018-09-12T08:15:56.205Z,23.09
2018-09-12T08:16:56.531Z,23.21
2018-09-12T08:17:56.463Z,23.19
2018-09-12T08:18:56.219Z,23.22
2018-09-12T08:19:56.464Z,23.19
2018-09-12T08:20:56.456Z,23.16
2018-09-12T08:21:56.456Z,23.32
2018-09-12T08:22:56.204Z,23.35
2018-09-12T08:23:56.231Z,23.37
2018-09-12T08:24:56.198Z,23.41
2018-09-12T08:25:56.458Z,23.42
2018-09-12T08:26:55.941Z,23.5
2018-09-12T08:27:56.457Z,23.55
2018-09-12T08:28:56.457Z,23.56
2018-09-12T08:29:56.459Z,23.57
2018-09-12T08:30:56.456Z,23.62
2018-09-12T08:31:56.204Z,23.62
2018-09-12T08:32:56.199Z,23.57
2018-09-12T08:33:56.460Z,23.63
2018-09-12T08:34:56.462Z,23.64
2018-09-12T08:35:56.466Z,23.64
2018-09-12T08:36:56.200Z,23.64
2018-09-12T08:37:56.455Z,23.64
2018-09-12T08:38:56.461Z,23.62
2018-09-12T08:39:56.208Z,23.66
2018-09-12T08:40:56.455Z,23.77
2018-09-12T08:41:56.461Z,23.74
2018-09-12T08:42:56.213Z,23.79
2018-09-12T08:43:56.459Z,23.85
2018-09-12T08:44:56.455Z,23.9
2018-09-12T08:45:56.202Z,24
2018-09-12T08:46:56.203Z,24.02
2018-09-12T08:47:56.709Z,24.02
2018-09-12T08:48:56.204Z,24.08
2018-09-12T08:49:56.208Z,24.12
2018-09-12T08:50:56.462Z,24.12
2018-09-12T08:51:56.457Z,24.04
2018-09-12T08:52:56.269Z,24.18
2018-09-12T08:53:56.462Z,24.18
2018-09-12T08:54:56.467Z,24.21
2018-09-12T08:55:56.459Z,24.17
2018-09-12T08:56:56.688Z,24.26
2018-09-12T08:57:56.463Z,24.29
2018-09-12T08:58:56.466Z,24.26
2018-09-12T08:59:56.212Z,24.3
2018-09-12T09:00:56.470Z,24.36
2018-09-12T09:01:56.461Z,24.45
2018-09-12T09:02:56.460Z,24.46
2018-09-12T09:03:56.627Z,24.55
2018-09-12T09:04:56.463Z,24.59
2018-09-12T09:05:56.471Z,24.58
2018-09-12T09:06:56.207Z,24.64
2018-09-12T09:07:56.468Z,24.64
2018-09-12T09:08:56.466Z,24.59
2018-09-12T09:09:56.465Z,24.67
2018-09-12T09:10:56.464Z,24.75
2018-09-12T09:11:56.470Z,24.67
2018-09-12T09:12:55.953Z,24.67
2018-09-12T09:13:56.464Z,24.66
2018-09-12T09:14:56.471Z,24.67
2018-09-12T09:15:56.477Z,24.7
2018-09-12T09:16:55.958Z,24.74
2018-09-12T09:17:56.474Z,24.64
2018-09-12T09:18:56.219Z,24.71
2018-09-12T09:19:56.472Z,24.74
2018-09-12T09:20:56.471Z,24.78
2018-09-12T09:21:56.218Z,24.86
2018-09-12T09:22:56.476Z,24.83
2018-09-12T09:23:56.477Z,24.92
2018-09-12T09:24:56.476Z,24.96
2018-09-12T09:25:56.481Z,24.94
2018-09-12T09:26:56.224Z,25.01
2018-09-12T09:27:56.480Z,25
2018-09-12T09:28:56.223Z,25.11
2018-09-12T09:29:56.490Z,25.2
2018-09-12T09:30:56.491Z,25.17
2018-09-12T09:31:56.228Z,25.34
2018-09-12T09:32:56.230Z,25.37
2018-09-12T09:33:56.490Z,25.49
2018-09-12T09:34:56.734Z,25.48
2018-09-12T09:35:56.488Z,25.47
2018-09-12T09:36:56.233Z,25.54
2018-09-12T09:37:56.234Z,25.51
2018-09-12T09:38:56.493Z,25.51
2018-09-12T09:39:56.500Z,25.33
2018-09-12T09:40:56.500Z,25.37
2018-09-12T09:41:56.243Z,25.32
2018-09-12T09:42:56.718Z,25.27
2018-09-12T09:43:56.338Z,25.26
2018-09-12T09:44:56.501Z,25.24
2018-09-12T09:45:56.247Z,25.39
2018-09-12T09:46:56.244Z,25.33
2018-09-12T09:47:56.761Z,25.3
2018-09-12T09:48:56.506Z,25.37
2018-09-12T09:49:56.506Z,25.42
2018-09-12T09:50:56.513Z,25.34
2018-09-12T09:51:56.253Z,25.51
2018-09-12T09:52:56.530Z,25.57
2018-09-12T09:53:56.515Z,25.54
2018-09-12T09:54:56.983Z,25.56
2018-09-12T09:55:56.521Z,25.56
2018-09-12T09:56:56.259Z,25.56
2018-09-12T09:57:56.260Z,25.56
2018-09-12T09:58:56.264Z,25.48
2018-09-12T09:59:56.270Z,25.49
2018-09-12T10:00:56.520Z,25.6
2018-09-12T10:01:56.266Z,25.56
2018-09-12T10:02:56.528Z,25.57
2018-09-12T10:03:56.531Z,25.67
2018-09-12T10:04:56.272Z,25.67
2018-09-12T10:05:56.755Z,25.69
2018-09-12T10:06:56.275Z,25.76
2018-09-12T10:07:56.309Z,25.78
2018-09-12T10:08:56.537Z,25.84
2018-09-12T10:09:56.543Z,25.88
2018-09-12T10:10:56.541Z,25.89
2018-09-12T10:11:56.889Z,26.01
2018-09-12T10:12:56.541Z,26
2018-09-12T10:13:56.581Z,26.06
2018-09-12T10:14:56.548Z,26.06
2018-09-12T10:15:56.549Z,26.03
2018-09-12T10:16:56.293Z,26.11
2018-09-12T10:17:56.552Z,26.2
2018-09-12T10:18:56.554Z,26.26
2018-09-12T10:19:56.557Z,26.3
2018-09-12T10:20:56.043Z,26.34
2018-09-12T10:21:56.558Z,26.32
2018-09-12T10:22:56.559Z,26.41
2018-09-12T10:23:56.305Z,26.3
2018-09-12T10:24:56.306Z,26.31
2018-09-12T10:25:56.563Z,26.2
2018-09-12T10:26:56.317Z,26.04
2018-09-12T10:27:56.576Z,26.04
2018-09-12T10:28:56.571Z,26.11
2018-09-12T10:29:56.576Z,26.19
2018-09-12T10:30:56.573Z,26.09
2018-09-12T10:31:56.324Z,26.03
2018-09-12T10:32:56.578Z,26.04
2018-09-12T10:33:56.585Z,26.04
2018-09-12T10:34:56.588Z,26.06
2018-09-12T10:35:56.584Z,26.01
2018-09-12T10:36:56.590Z,25.93
2018-09-12T10:37:56.590Z,26.03
2018-09-12T10:38:56.595Z,25.97
2018-09-12T10:39:56.592Z,26.03
2018-09-12T10:40:56.392Z,26.15
2018-09-12T10:41:56.337Z,26.15
2018-09-12T10:42:56.592Z,26.22
2018-09-12T10:43:56.607Z,26.31
2018-09-12T10:44:56.607Z,26.39
2018-09-12T10:45:56.605Z,26.41
2018-09-12T10:46:56.348Z,26.41
2018-09-12T10:47:56.352Z,26.38
2018-09-12T10:48:56.615Z,26.5
2018-09-12T10:49:56.356Z,26.49
2018-09-12T10:50:56.617Z,26.52
2018-09-12T10:51:56.360Z,26.47
2018-09-12T10:52:56.621Z,26.63
2018-09-12T10:53:56.625Z,26.61
2018-09-12T10:54:56.634Z,26.61
2018-09-12T10:55:56.627Z,26.61
2018-09-12T10:56:56.626Z,26.61
2018-09-12T10:57:56.379Z,26.69
2018-09-12T10:58:56.704Z,26.68
2018-09-12T10:59:56.635Z,26.63
2018-09-12T11:00:56.641Z,26.53
2018-09-12T11:01:56.383Z,26.44
2018-09-12T11:02:56.645Z,26.42
2018-09-12T11:03:56.656Z,26.37
2018-09-12T11:04:56.652Z,26.38
2018-09-12T11:05:56.401Z,26.37
2018-09-12T11:06:56.406Z,26.49
2018-09-12T11:07:56.408Z,26.49
2018-09-12T11:08:56.681Z,26.67
2018-09-12T11:09:56.840Z,26.71
2018-09-12T11:10:56.665Z,26.76
2018-09-12T11:11:56.669Z,26.76
2018-09-12T11:12:56.672Z,26.79
2018-09-12T11:13:56.674Z,26.87
2018-09-12T11:14:56.680Z,26.79
2018-09-12T11:15:56.419Z,26.91
2018-09-12T11:16:56.680Z,26.79
2018-09-12T11:17:56.421Z,26.81
2018-09-12T11:18:56.169Z,26.75
2018-09-12T11:19:56.683Z,26.69
2018-09-12T11:20:56.690Z,26.75
2018-09-12T11:21:56.178Z,26.76
2018-09-12T11:22:56.692Z,26.81
2018-09-12T11:23:56.816Z,26.81
2018-09-12T11:24:56.761Z,26.93
2018-09-12T11:25:56.701Z,26.84
2018-09-12T11:26:56.719Z,26.89
2018-09-12T11:27:56.449Z,26.91
2018-09-12T11:28:56.707Z,26.9
2018-09-12T11:29:56.710Z,26.84
2018-09-12T11:30:56.452Z,26.76
2018-09-12T11:31:56.716Z,26.63
2018-09-12T11:32:56.724Z,26.63
2018-09-12T11:33:56.465Z,26.67
2018-09-12T11:34:56.725Z,26.78
2018-09-12T11:35:56.735Z,26.81
2018-09-12T11:36:56.470Z,26.81
2018-09-12T11:37:56.470Z,26.72
2018-09-12T11:38:56.474Z,26.64
2018-09-12T11:39:56.484Z,26.63
2018-09-12T11:40:56.739Z,26.67
2018-09-12T11:41:56.740Z,26.61
2018-09-12T11:42:56.484Z,26.69
2018-09-12T11:43:56.755Z,26.78
2018-09-12T11:44:56.747Z,26.67
2018-09-12T11:45:56.490Z,26.63
2018-09-12T11:46:56.495Z,26.63
2018-09-12T11:47:56.755Z,26.63
2018-09-12T11:48:56.789Z,26.54
2018-09-12T11:49:56.761Z,26.49
2018-09-12T11:50:56.765Z,26.53
2018-09-12T11:51:56.768Z,26.52
2018-09-12T11:52:56.770Z,26.42
2018-09-12T11:53:56.770Z,26.44
2018-09-12T11:54:56.772Z,26.41
2018-09-12T11:55:56.520Z,26.39
2018-09-12T11:56:56.520Z,26.34
2018-09-12T11:57:56.775Z,26.31
2018-09-12T11:58:56.526Z,26.35
2018-09-12T11:59:56.527Z,26.41
2018-09-12T12:00:56.784Z,26.32
2018-09-12T12:01:56.789Z,26.42
2018-09-12T12:02:56.532Z,26.49
2018-09-12T12:03:56.791Z,26.49
2018-09-12T12:04:56.796Z,26.49
2018-09-12T12:05:56.808Z,26.34
2018-09-12T12:06:56.537Z,26.34
2018-09-12T12:07:56.800Z,26.38
2018-09-12T12:08:56.545Z,26.39
2018-09-12T12:09:56.817Z,26.49
2018-09-12T12:10:56.806Z,26.5
2018-09-12T12:11:56.294Z,26.44
2018-09-12T12:12:56.555Z,26.34
2018-09-12T12:13:56.813Z,26.5
2018-09-12T12:14:56.815Z,26.49
2018-09-12T12:15:56.562Z,26.45
2018-09-12T12:16:56.823Z,26.41
2018-09-12T12:17:56.565Z,26.42
2018-09-12T12:18:56.822Z,26.39
2018-09-12T12:19:56.316Z,26.47
2018-09-12T12:20:56.573Z,26.49
2018-09-12T12:21:56.580Z,26.53
2018-09-12T12:22:56.833Z,26.54
2018-09-12T12:23:56.842Z,26.47
2018-09-12T12:24:56.858Z,26.45
2018-09-12T12:25:56.588Z,26.52
2018-09-12T12:26:56.848Z,26.42
2018-09-12T12:27:56.859Z,26.42
2018-09-12T12:28:56.594Z,26.41
2018-09-12T12:29:56.857Z,26.38
2018-09-12T12:30:56.625Z,26.45
2018-09-12T12:31:56.869Z,26.47
2018-09-12T12:32:56.864Z,26.35
2018-09-12T12:33:56.867Z,26.39
2018-09-12T12:34:56.868Z,26.42
2018-09-12T12:35:56.608Z,26.34
2018-09-12T12:36:56.614Z,26.35
2018-09-12T12:37:56.615Z,26.32
2018-09-12T12:38:56.877Z,26.31
2018-09-12T12:39:56.876Z,26.31
2018-09-12T12:40:56.622Z,26.34
2018-09-12T12:41:56.898Z,26.34
2018-09-12T12:42:56.897Z,26.39
2018-09-12T12:43:56.892Z,26.38
2018-09-12T12:44:56.897Z,26.42
2018-09-12T12:45:56.634Z,26.37
2018-09-12T12:46:56.641Z,26.34
2018-09-12T12:47:56.641Z,26.41
2018-09-12T12:48:56.643Z,26.35
2018-09-12T12:49:56.656Z,26.31
2018-09-12T12:50:56.650Z,26.39
2018-09-12T12:51:56.650Z,26.37
2018-09-12T12:52:56.652Z,26.38
2018-09-12T12:53:56.910Z,26.34
2018-09-12T12:54:56.917Z,26.32